This is the latest recevied weather packets stored in our database for station/object NB9X. If no packets are shown the sender has not sent any weather packets the latest 10 day(s).
| Time | Temp. | Humidity | Pressure | Rain* | Wind** | Luminosity | Snow |
|---|---|---|---|---|---|---|---|
| 1777754959 | 22.78° C | 100% | 1009.2 hPa | 0.51 mm | - | - | - |
| 1777754897 | 22.78° C | 100% | 1009.2 hPa | 0.51 mm | - | - | - |
| 1777754597 | 22.22° C | 100% | 1009.5 hPa | 0.76 mm | - | - | - |
| 1777754297 | 22.22° C | 100% | 1009.2 hPa | 0.51 mm | - | - | - |
| 1777753997 | 22.22° C | 100% | 1009.2 hPa | 0.51 mm | - | - | - |
| 1777753697 | 22.22° C | 100% | 1009 hPa | 0.51 mm | - | - | - |
| 1777753602 | 22.22° C | 100% | 1009.1 hPa | 0.51 mm | - | - | - |
| 1777753539 | 22.22° C | 100% | 1009.1 hPa | 0.51 mm | - | - | - |
| 1777753397 | 22.22° C | 100% | 1009.1 hPa | 0.51 mm | - | - | - |
| 1777753097 | 22.78° C | 100% | 1009.3 hPa | 0.51 mm | - | - | - |
| 1777752957 | 21.67° C | 100% | 1009.6 hPa | 16 mm | - | - | - |
| 1777752797 | 22.22° C | 100% | 1009.5 hPa | 0.51 mm | - | - | - |
| 1777752497 | 21.67° C | 100% | 1009.6 hPa | 0.51 mm | - | - | - |
| 1777752197 | 22.22° C | 100% | 1008.1 hPa | 6.86 mm | - | - | - |
| 1777751897 | 21.67° C | 100% | 1009.5 hPa | 15.49 mm | - | - | - |
| 1777751597 | 21.67° C | 100% | 1009.6 hPa | 16 mm | - | - | - |
| 1777751297 | 21.67° C | 100% | 1009.4 hPa | 16 mm | - | - | - |
| 1777751125 | 21.67° C | 100% | 1009.4 hPa | 15.75 mm | - | - | - |
| 1777750997 | 21.67° C | 100% | 1009.6 hPa | 15.75 mm | - | - | - |
| 1777750697 | 21.67° C | 100% | 1009.4 hPa | 15.75 mm | - | - | - |
| 1777750397 | 21.11° C | 100% | 1009.6 hPa | 15.75 mm | - | - | - |
| 1777750097 | 21.11° C | 100% | 1009.5 hPa | 15.75 mm | - | - | - |
| 1777749797 | 21.11° C | 100% | 1009.9 hPa | 15.75 mm | - | - | - |
| 1777749497 | 21.11° C | 100% | 1010 hPa | 15.75 mm | - | - | - |
| 1777749267 | 22.22° C | 100% | 1010.6 hPa | 0.51 mm | - | - | - |
* Rain latest hour (hover to see other rain measurements)
** Current wind speed in m/s (hover to see current wind gust speed)